Time;durP1;ratioP1;P1;durP2;ratioP2;P2;SDS_P1;SDS_P2;PMS_P1;PMS_P2;Temp;Humidity;BMP_temperature;BMP_pressure;BME280_temperature;BME280_humidity;BME280_pressure;Samples;Min_cycle;Max_cycle;Signal;HPM_P1;HPM_P2
2021/04/22 00:00:29;;;;;;;10.88;2.03;;;;;;;9.11;51.31;101394.13;5012912;28;20029;-88
2021/04/22 00:02:55;;;;;;;12.25;2.60;;;;;;;9.08;50.93;101389.91;5008155;28;20034;-87
2021/04/22 00:05:31;;;;;;;10.50;2.28;;;;;;;9.17;51.54;101393.00;5009341;28;20030;-88
2021/04/22 00:07:57;;;;;;;13.35;2.42;;;;;;;9.00;51.30;101391.16;4992555;28;20030;-88
2021/04/22 00:10:47;;;;;;;9.95;1.90;;;;;;;9.16;51.59;101404.38;4993718;28;20042;-88
2021/04/22 00:13:15;;;;;;;16.13;2.30;;;;;;;8.73;52.43;101388.88;4990118;28;20038;-88
2021/04/22 00:15:41;;;;;;;11.77;2.55;;;;;;;9.09;51.86;101404.69;4993840;28;20066;-88
2021/04/22 00:18:08;;;;;;;9.43;2.67;;;;;;;8.93;51.88;101408.91;4993461;28;20480;-88
2021/04/22 00:20:35;;;;;;;9.80;2.35;;;;;;;9.15;51.20;101400.94;4993531;28;20281;-88
2021/04/22 00:23:01;;;;;;;9.35;2.08;;;;;;;8.88;52.07;101401.25;4993674;28;20022;-87
2021/04/22 00:25:26;;;;;;;9.70;1.95;;;;;;;9.09;51.43;101412.53;4993454;28;20028;-88
2021/04/22 00:27:53;;;;;;;7.63;1.95;;;;;;;8.95;51.83;101411.47;4993474;28;20018;-88
2021/04/22 00:30:19;;;;;;;12.45;2.50;;;;;;;8.92;52.28;101409.81;5003289;28;20461;-88
2021/04/22 00:32:45;;;;;;;15.55;2.55;;;;;;;8.92;51.86;101418.53;5012835;28;20022;-87
2021/04/22 00:35:11;;;;;;;15.50;2.50;;;;;;;8.81;52.34;101405.09;5012792;28;20033;-88
2021/04/22 00:37:38;;;;;;;13.68;2.38;;;;;;;8.49;53.35;101415.19;5012756;28;20117;-88
2021/04/22 00:40:10;;;;;;;6.85;1.95;;;;;;;8.78;52.32;101422.69;5013080;28;20076;-88
2021/04/22 00:42:35;;;;;;;6.20;2.25;;;;;;;8.58;52.52;101419.19;5011170;28;20025;-87
2021/04/22 00:45:02;;;;;;;8.25;1.70;;;;;;;8.64;53.03;101425.91;5003090;28;20034;-88
2021/04/22 00:47:27;;;;;;;10.30;2.35;;;;;;;8.74;52.58;101427.22;4996356;28;20481;-88
2021/04/22 00:49:52;;;;;;;7.20;1.80;;;;;;;8.76;51.72;101429.78;4993058;28;20030;-88
2021/04/22 00:52:18;;;;;;;11.60;1.73;;;;;;;8.81;52.83;101422.56;4993767;28;20054;-87
2021/04/22 00:54:44;;;;;;;7.53;2.10;;;;;;;8.56;52.90;101421.00;5012596;28;20041;-88
2021/04/22 00:57:09;;;;;;;11.57;2.38;;;;;;;8.64;52.84;101425.91;5012073;28;20034;-87
2021/04/22 00:59:35;;;;;;;7.88;2.10;;;;;;;8.55;53.34;101429.78;5014310;28;20022;-88
2021/04/22 01:02:15;;;;;;;12.88;2.53;;;;;;;8.63;53.00;101419.84;5012908;28;20025;-87
2021/04/22 01:04:42;;;;;;;8.55;1.98;;;;;;;8.32;53.83;101421.09;5014801;28;20092;-86
2021/04/22 01:07:08;;;;;;;10.15;2.70;;;;;;;8.29;54.10;101421.25;5012035;28;20419;-88
2021/04/22 01:09:34;;;;;;;8.25;1.73;;;;;;;8.39;53.78;101428.69;5012639;28;20033;-88
2021/04/22 01:12:02;;;;;;;11.13;2.22;;;;;;;8.53;53.43;101428.97;4996191;28;20061;-87
2021/04/22 01:14:27;;;;;;;7.10;2.70;;;;;;;8.49;53.13;101430.03;4992577;28;20057;-87
2021/04/22 01:16:52;;;;;;;9.07;1.45;;;;;;;8.35;53.98;101441.06;4992912;28;20027;-87
2021/04/22 01:19:18;;;;;;;7.50;1.90;;;;;;;8.41;53.67;101445.19;4992806;28;20038;-87
2021/04/22 01:21:43;;;;;;;7.07;2.20;;;;;;;8.36;54.04;101439.31;4992806;28;20465;-88
2021/04/22 01:24:10;;;;;;;9.30;1.88;;;;;;;8.33;53.91;101449.00;4992746;28;20369;-88
2021/04/22 01:26:35;;;;;;;11.45;1.98;;;;;;;8.24;54.32;101446.75;5006306;28;20034;-87
2021/04/22 01:29:03;;;;;;;5.43;2.08;;;;;;;8.40;54.05;101440.88;5012759;28;20535;-88
2021/04/22 01:31:29;;;;;;;9.05;2.33;;;;;;;8.29;53.93;101442.19;5012074;28;20117;-87
2021/04/22 01:34:03;;;;;;;14.23;1.92;;;;;;;8.11;55.04;101448.16;5010987;28;20030;-87
2021/04/22 01:36:41;;;;;;;10.27;2.22;;;;;;;8.33;53.89;101454.22;5012085;28;20034;-87
2021/04/22 01:39:09;;;;;;;13.95;2.75;;;;;;;8.26;54.29;101452.78;5011102;28;20113;-87
2021/04/22 01:41:35;;;;;;;11.77;2.17;;;;;;;8.15;54.66;101452.34;5011819;28;20034;-87
2021/04/22 01:44:01;;;;;;;9.65;2.03;;;;;;;8.20;54.39;101455.66;5012009;28;20393;-87
2021/04/22 01:46:27;;;;;;;14.18;2.50;;;;;;;8.16;54.35;101458.47;5016057;28;20060;-87
2021/04/22 01:48:53;;;;;;;8.65;3.33;;;;;;;7.88;54.98;101447.34;5016287;28;20064;-87
2021/04/22 01:51:19;;;;;;;8.02;1.85;;;;;;;7.95;55.44;101458.41;5016218;28;20030;-86
2021/04/22 01:53:45;;;;;;;13.20;2.42;;;;;;;7.95;54.69;101456.63;5016671;28;20052;-86
2021/04/22 01:56:10;;;;;;;7.95;2.05;;;;;;;7.92;55.00;101459.38;5016356;28;20033;-87
2021/04/22 01:58:36;;;;;;;15.10;2.70;;;;;;;7.80;55.89;101445.94;5024103;28;20026;-87
2021/04/22 02:01:02;;;;;;;10.35;2.58;;;;;;;7.91;55.41;101457.66;5039620;28;20026;-86
2021/04/22 02:03:30;;;;;;;11.48;1.95;;;;;;;7.98;55.24;101462.63;5022424;28;20527;-87
2021/04/22 02:05:56;;;;;;;15.73;2.97;;;;;;;7.73;55.64;101459.25;5015870;28;20038;-87
2021/04/22 02:08:21;;;;;;;9.18;2.00;;;;;;;7.89;54.90;101458.66;5015850;28;20033;-86
2021/04/22 02:10:47;;;;;;;10.43;2.08;;;;;;;7.70;56.06;101463.72;5001038;28;20034;-87
2021/04/22 02:13:15;;;;;;;10.38;2.00;;;;;;;7.71;55.67;101460.22;4996187;28;20026;-87
2021/04/22 02:15:41;;;;;;;9.60;2.10;;;;;;;7.67;55.78;101456.88;4994913;28;20158;-87
2021/04/22 02:18:06;;;;;;;9.02;2.13;;;;;;;7.68;55.97;101470.78;4996339;28;20109;-87
2021/04/22 02:20:33;;;;;;;8.27;1.88;;;;;;;7.74;55.67;101465.31;4994751;28;20417;-87
2021/04/22 02:22:59;;;;;;;6.90;2.30;;;;;;;7.80;55.46;101465.09;5011080;28;20129;-87
2021/04/22 02:25:26;;;;;;;13.50;2.22;;;;;;;7.71;55.63;101460.22;5006106;28;20535;-87
2021/04/22 02:27:52;;;;;;;11.70;2.47;;;;;;;7.65;55.32;101460.47;5014393;28;20080;-87
2021/04/22 02:30:24;;;;;;;19.13;2.67;;;;;;;7.67;55.69;101469.09;5015277;28;20030;-87
2021/04/22 02:32:50;;;;;;;;;;;;;;;7.78;55.07;101460.81;5015753;28;20026;-87
2021/04/22 02:35:18;;;;;;;6.35;1.67;;;;;;;7.64;55.68;101470.09;5015240;28;19940;-87
2021/04/22 02:37:44;;;;;;;10.43;1.95;;;;;;;7.76;55.64;101479.22;5015337;28;20424;-87
2021/04/22 02:40:14;;;;;;;10.27;2.47;;;;;;;7.59;56.03;101476.41;5003777;28;20034;-87
2021/04/22 02:42:40;;;;;;;14.98;2.78;;;;;;;7.39;56.61;101480.59;4995444;28;20030;-87
2021/04/22 02:45:12;;;;;;;9.55;2.55;;;;;;;7.33;56.51;101479.06;4995458;28;20022;-87
2021/04/22 02:47:38;;;;;;;16.58;3.40;;;;;;;7.26;57.14;101481.97;4995658;28;20469;-87
2021/04/22 02:50:10;;;;;;;14.43;3.25;;;;;;;7.31;57.19;101486.13;4996579;28;20040;-87
2021/04/22 02:52:35;;;;;;;13.32;2.70;;;;;;;7.46;56.58;101482.06;4996239;28;20539;-87
2021/04/22 02:55:01;;;;;;;10.20;2.38;;;;;;;7.32;56.97;101492.19;5008004;28;20061;-87
2021/04/22 02:57:27;;;;;;;12.23;3.10;;;;;;;7.26;57.49;101479.34;5015103;28;20080;-87
2021/04/22 02:59:52;;;;;;;14.90;2.40;;;;;;;7.38;56.49;101486.72;5015043;28;20069;-87
2021/04/22 03:02:17;;;;;;;7.38;2.10;;;;;;;7.35;56.42;101484.25;5014915;28;20079;-87
2021/04/22 03:04:43;;;;;;;15.85;2.05;;;;;;;7.22;56.61;101477.75;5015202;28;20037;-87
2021/04/22 03:07:08;;;;;;;12.25;1.98;;;;;;;7.28;56.06;101487.97;5014918;28;20038;-87
2021/04/22 03:09:33;;;;;;;7.05;1.90;;;;;;;7.26;56.20;101490.66;5004282;28;20037;-87
2021/04/22 03:11:59;;;;;;;14.77;2.50;;;;;;;7.10;56.28;101479.06;4993476;28;20037;-87
2021/04/22 03:14:24;;;;;;;10.70;2.17;;;;;;;7.25;55.70;101490.72;4993985;28;20022;-87
2021/04/22 03:16:50;;;;;;;10.95;2.22;;;;;;;7.15;55.80;101485.81;4994775;28;20559;-87
2021/04/22 03:19:15;;;;;;;20.05;3.45;;;;;;;6.92;57.01;101485.81;4995639;28;20027;-88
2021/04/22 03:21:41;;;;;;;7.10;2.08;;;;;;;7.08;56.58;101489.56;4995008;28;20027;-87
2021/04/22 03:24:07;;;;;;;11.75;2.22;;;;;;;7.12;56.36;101472.88;5001786;28;20097;-87
2021/04/22 03:26:32;;;;;;;15.10;3.00;;;;;;;7.23;56.40;101484.72;5014236;28;20108;-86
2021/04/22 03:28:58;;;;;;;9.05;2.35;;;;;;;7.24;55.98;101484.63;5014277;28;20101;-87
2021/04/22 03:31:24;;;;;;;15.63;2.78;;;;;;;7.06;57.00;101482.69;5014222;28;20034;-86
2021/04/22 03:33:50;;;;;;;11.45;2.17;;;;;;;7.01;56.93;101475.03;5014021;28;20022;-87
2021/04/22 03:36:15;;;;;;;15.25;2.53;;;;;;;6.97;57.01;101478.66;5013060;28;20041;-87
2021/04/22 03:38:41;;;;;;;12.75;2.67;;;;;;;6.77;57.65;101481.09;5005507;28;20056;-87
2021/04/22 03:41:06;;;;;;;15.00;2.70;;;;;;;6.91;57.36;101477.13;4994584;28;20377;-87
2021/04/22 03:43:31;;;;;;;8.95;2.72;;;;;;;6.89;57.45;101472.84;4994455;28;20038;-87
2021/04/22 03:45:57;;;;;;;8.27;2.20;;;;;;;6.80;57.84;101463.59;5008779;28;20491;-87
2021/04/22 03:48:22;;;;;;;10.25;2.13;;;;;;;6.79;57.79;101474.91;5012385;28;20445;-87
2021/04/22 03:50:47;;;;;;;10.32;2.38;;;;;;;6.73;58.34;101475.13;5013945;28;20072;-87
2021/04/22 03:53:13;;;;;;;11.80;2.60;;;;;;;6.65;57.98;101472.78;5010543;28;20433;-87
2021/04/22 03:55:38;;;;;;;11.15;2.80;;;;;;;6.68;58.23;101472.69;4994280;28;20030;-87
2021/04/22 03:58:03;;;;;;;12.40;2.00;;;;;;;6.46;58.65;101476.97;4994178;28;20105;-87
2021/04/22 04:00:29;;;;;;;16.00;2.15;;;;;;;6.26;59.74;101478.47;4994081;28;20031;-87
2021/04/22 04:02:54;;;;;;;10.18;2.40;;;;;;;6.58;58.72;101483.53;4994067;28;20311;-86
2021/04/22 04:05:19;;;;;;;15.68;2.70;;;;;;;6.51;58.45;101467.19;4994352;28;20041;-86
2021/04/22 04:07:46;;;;;;;10.63;2.38;;;;;;;6.39;59.06;101475.44;4994277;28;20034;-86
2021/04/22 04:10:12;;;;;;;11.55;2.80;;;;;;;6.48;58.65;101480.38;5012047;28;20435;-87
2021/04/22 04:12:38;;;;;;;12.90;2.53;;;;;;;6.41;58.29;101469.25;5012101;28;20026;-86
2021/04/22 04:15:06;;;;;;;15.65;2.63;;;;;;;6.24;59.54;101482.88;5013136;28;20034;-86
2021/04/22 04:17:32;;;;;;;15.60;2.90;;;;;;;6.47;58.88;101479.50;5013264;28;20045;-86
2021/04/22 04:19:57;;;;;;;12.32;2.97;;;;;;;6.43;58.61;101477.03;5013202;28;20469;-87
2021/04/22 04:22:22;;;;;;;11.55;1.75;;;;;;;6.48;58.80;101481.22;5012835;28;20503;-87
2021/04/22 04:24:48;;;;;;;10.20;2.33;;;;;;;6.31;59.18;101484.38;4994035;28;20034;-86
2021/04/22 04:27:13;;;;;;;16.55;3.00;;;;;;;6.35;59.36;101491.19;4993680;28;20116;-86
2021/04/22 04:29:39;;;;;;;11.95;2.40;;;;;;;6.17;59.75;101476.16;4993969;28;20539;-86
2021/04/22 04:32:05;;;;;;;11.02;2.47;;;;;;;6.19;59.79;101476.09;5004902;28;20026;-86
2021/04/22 04:34:30;;;;;;;19.52;2.80;;;;;;;6.08;60.17;101490.34;5016177;28;20014;-85
2021/04/22 04:36:55;;;;;;;11.30;2.80;;;;;;;5.99;60.78;101471.53;4994727;28;20030;-86
2021/04/22 04:39:21;;;;;;;18.48;3.33;;;;;;;6.06;60.75;101484.34;5011536;28;20041;-87
2021/04/22 04:41:46;;;;;;;14.50;3.10;;;;;;;6.00;60.65;101496.69;5013658;28;20403;-86
2021/04/22 04:44:12;;;;;;;13.13;3.08;;;;;;;6.26;59.64;101496.72;5012581;28;20030;-86
2021/04/22 04:46:39;;;;;;;14.73;2.65;;;;;;;6.34;59.30;101499.09;5013336;28;20500;-87
2021/04/22 04:49:05;;;;;;;14.88;3.22;;;;;;;6.37;59.06;101505.94;5012108;28;20021;-87
2021/04/22 04:51:30;;;;;;;15.10;2.42;;;;;;;6.27;59.15;101508.84;5012862;28;20026;-87
2021/04/22 04:53:56;;;;;;;8.95;2.60;;;;;;;6.25;59.81;101504.59;5007519;28;20037;-87
2021/04/22 04:56:21;;;;;;;12.45;2.65;;;;;;;5.97;60.17;101496.81;4993021;28;20120;-87
2021/04/22 04:58:47;;;;;;;20.05;2.80;;;;;;;6.19;59.70;101510.84;4993311;28;20045;-87
2021/04/22 05:01:13;;;;;;;15.32;3.15;;;;;;;6.30;59.40;101503.53;4991840;28;20495;-87
2021/04/22 05:03:39;;;;;;;11.60;2.55;;;;;;;6.15;60.11;101504.03;4993534;28;20026;-87
2021/04/22 05:06:05;;;;;;;12.52;2.83;;;;;;;5.84;60.92;101504.94;4992926;28;20034;-87
2021/04/22 05:08:30;;;;;;;18.73;3.03;;;;;;;6.03;60.72;101509.63;5007399;28;20552;-87
2021/04/22 05:10:56;;;;;;;10.05;2.33;;;;;;;5.93;60.98;101507.28;5012792;28;20120;-87
2021/04/22 05:13:21;;;;;;;16.35;3.08;;;;;;;5.84;61.56;101517.13;5012673;28;20025;-87
2021/04/22 05:15:46;;;;;;;13.40;2.58;;;;;;;5.85;61.22;101508.44;5011127;28;20040;-87
2021/04/22 05:18:12;;;;;;;14.38;2.85;;;;;;;5.94;61.33;101505.50;5010860;28;20037;-87
2021/04/22 05:20:37;;;;;;;11.38;3.42;;;;;;;5.75;61.85;101526.09;5011752;28;20499;-86
2021/04/22 05:23:03;;;;;;;13.25;3.55;;;;;;;5.77;62.12;101526.91;5012062;28;20088;-86
2021/04/22 05:25:28;;;;;;;16.38;2.90;;;;;;;5.97;61.01;101526.31;4994406;28;20485;-87
2021/04/22 05:27:53;;;;;;;15.43;2.70;;;;;;;6.02;61.09;101528.78;4992641;28;20072;-88
2021/04/22 05:30:19;;;;;;;12.15;2.85;;;;;;;6.02;61.36;101534.00;4992848;28;20520;-88
2021/04/22 05:32:45;;;;;;;15.98;3.15;;;;;;;6.25;60.40;101525.47;4992358;28;20022;-88
2021/04/22 05:35:11;;;;;;;11.18;2.42;;;;;;;6.04;61.53;101533.06;4992148;28;20504;-88
2021/04/22 05:37:36;;;;;;;12.75;2.53;;;;;;;5.96;61.27;101522.00;5002297;28;20029;-89
2021/04/22 05:40:04;;;;;;;14.70;2.92;;;;;;;6.21;60.73;101545.56;5011942;28;20029;-88
2021/04/22 05:42:29;;;;;;;16.52;2.42;;;;;;;6.00;61.65;101546.22;5011979;28;20030;-85
2021/04/22 05:44:54;;;;;;;18.88;2.60;;;;;;;6.12;61.20;101536.28;5011776;28;20436;-88
2021/04/22 05:47:20;;;;;;;15.10;2.50;;;;;;;6.18;60.58;101536.97;5012233;28;20108;-88
2021/04/22 05:49:45;;;;;;;17.23;2.67;;;;;;;6.12;61.36;101540.63;5012003;28;20026;-86
2021/04/22 05:52:10;;;;;;;22.30;3.03;;;;;;;6.13;61.36;101542.34;5006854;28;20018;-89
2021/04/22 05:54:36;;;;;;;12.23;2.67;;;;;;;6.42;60.71;101549.25;4992305;28;20034;-86
2021/04/22 05:57:01;;;;;;;8.98;3.33;;;;;;;6.39;60.16;101548.50;4990990;28;20052;-87
2021/04/22 05:59:27;;;;;;;12.63;2.55;;;;;;;5.93;61.82;101537.72;4992556;28;20216;-87
2021/04/22 06:01:52;;;;;;;13.63;2.38;;;;;;;6.08;61.63;101549.44;4992821;28;20077;-87
2021/04/22 06:04:17;;;;;;;11.55;3.28;;;;;;;6.40;60.36;101550.19;5007743;28;20023;-87
2021/04/22 06:06:43;;;;;;;13.98;2.90;;;;;;;5.92;62.43;101555.13;4995369;28;20483;-87
2021/04/22 06:09:08;;;;;;;16.55;2.72;;;;;;;6.21;61.71;101571.63;5012142;28;20049;-87
2021/04/22 06:11:33;;;;;;;13.57;2.95;;;;;;;6.39;61.19;101569.34;5011818;28;20030;-88
2021/04/22 06:13:59;;;;;;;15.82;3.33;;;;;;;6.44;61.02;101563.09;5011715;28;20062;-88
2021/04/22 06:16:26;;;;;;;19.65;3.17;;;;;;;6.58;60.42;101570.47;5011849;28;20026;-88
2021/04/22 06:18:51;;;;;;;14.13;3.35;;;;;;;6.60;60.56;101560.84;5011725;28;20276;-88
2021/04/22 06:21:17;;;;;;;12.23;2.47;;;;;;;6.93;59.81;101576.25;5006610;28;20192;-87
2021/04/22 06:23:42;;;;;;;17.83;3.53;;;;;;;6.72;59.75;101575.25;5007991;28;20026;-88
2021/04/22 06:26:08;;;;;;;15.90;2.88;;;;;;;6.88;60.06;101578.19;5024524;28;20080;-87
2021/04/22 06:28:33;;;;;;;17.00;2.72;;;;;;;7.02;59.31;101570.72;5011230;28;20025;-87
2021/04/22 06:30:59;;;;;;;16.05;2.95;;;;;;;7.20;58.88;101576.22;4993440;28;20034;-90
2021/04/22 06:33:24;;;;;;;23.42;3.22;;;;;;;7.18;58.84;101578.88;5002955;28;20109;-89
2021/04/22 06:35:50;;;;;;;20.02;3.47;;;;;;;7.14;58.70;101585.97;5004317;28;20503;-90
2021/04/22 06:38:15;;;;;;;20.30;3.90;;;;;;;7.88;58.19;101580.72;5004508;28;20053;-89
2021/04/22 06:40:40;;;;;;;16.33;3.90;;;;;;;8.79;53.77;101568.41;4994025;28;20026;-87
2021/04/22 06:43:10;;;;;;;13.27;2.55;;;;;;;9.87;51.08;101565.41;4999956;28;20034;-88
2021/04/22 06:45:35;;;;;;;15.55;2.53;;;;;;;10.53;48.86;101561.41;5008198;28;20523;-85
2021/04/22 06:48:00;;;;;;;9.77;3.03;;;;;;;11.01;46.63;101551.97;5006025;28;20101;-88
2021/04/22 06:50:26;;;;;;;17.17;3.45;;;;;;;11.26;46.53;101555.97;5003484;28;20026;-87
2021/04/22 06:52:51;;;;;;;22.15;3.20;;;;;;;12.70;42.75;101562.97;4997789;28;20053;-87
2021/04/22 06:55:20;;;;;;;18.88;3.15;;;;;;;12.63;42.66;101564.25;5005593;28;20025;-87
2021/04/22 06:57:46;;;;;;;13.93;2.35;;;;;;;13.73;41.05;101575.25;5008453;28;20531;-87
2021/04/22 07:00:16;;;;;;;13.82;3.30;;;;;;;14.12;39.78;101576.31;5007595;28;20034;-87
2021/04/22 07:02:41;;;;;;;13.80;2.90;;;;;;;14.92;37.93;101580.78;5002045;28;20076;-89
2021/04/22 07:05:08;;;;;;;20.08;3.08;;;;;;;14.61;38.19;101589.00;5013622;28;20022;-88
2021/04/22 07:07:34;;;;;;;19.60;2.95;;;;;;;15.53;36.87;101591.59;5028449;28;20026;-88
2021/04/22 07:10:00;;;;;;;18.27;3.40;;;;;;;16.54;34.83;101589.63;5008893;28;20041;-88
2021/04/22 07:12:26;;;;;;;17.65;2.50;;;;;;;16.36;34.78;101594.47;5004507;28;20084;-89
2021/04/22 07:14:51;;;;;;;21.55;3.50;;;;;;;16.03;34.77;101595.13;5000270;28;20083;-88
2021/04/22 07:17:17;;;;;;;24.77;4.05;;;;;;;16.88;34.03;101603.03;5005816;28;20026;-88
2021/04/22 07:19:42;;;;;;;16.83;2.58;;;;;;;17.40;33.47;101604.34;5002527;28;20026;-88
2021/04/22 07:22:08;;;;;;;15.70;2.83;;;;;;;17.24;33.06;101598.56;5009431;28;20480;-89
2021/04/22 07:24:33;;;;;;;16.88;3.00;;;;;;;17.43;32.72;101609.41;5009751;28;20068;-88
2021/04/22 07:26:58;;;;;;;10.68;2.65;;;;;;;17.79;32.38;101614.59;4998567;28;20562;-88
2021/04/22 07:29:24;;;;;;;20.35;3.58;;;;;;;17.43;32.57;101614.72;5004720;28;20018;-88
2021/04/22 07:31:49;;;;;;;15.77;3.00;;;;;;;17.81;31.84;101608.22;5005234;28;20033;-88
2021/04/22 07:34:15;;;;;;;17.40;3.00;;;;;;;18.36;31.50;101607.41;4999686;28;20038;-88
2021/04/22 07:36:40;;;;;;;11.85;2.72;;;;;;;18.62;30.46;101611.44;5023626;28;20029;-88
2021/04/22 07:39:06;;;;;;;14.48;2.95;;;;;;;19.30;30.05;101619.09;5002843;28;20495;-89
2021/04/22 07:41:31;;;;;;;13.02;2.83;;;;;;;19.60;29.38;101625.41;5004234;28;20072;-87
2021/04/22 07:43:57;;;;;;;21.02;3.92;;;;;;;19.22;29.56;101621.56;5005787;28;20049;-89
2021/04/22 07:46:22;;;;;;;11.15;2.72;;;;;;;19.78;28.94;101626.47;4997017;28;20113;-87
2021/04/22 07:48:48;;;;;;;15.18;3.00;;;;;;;19.34;29.65;101617.00;4995251;28;20038;-87
2021/04/22 07:51:13;;;;;;;18.70;3.65;;;;;;;18.85;29.88;101618.50;5002684;28;20041;-87
2021/04/22 07:53:38;;;;;;;29.90;5.25;;;;;;;19.32;29.52;101611.81;5000282;28;20531;-88
2021/04/22 07:56:04;;;;;;;14.20;3.92;;;;;;;19.38;30.04;101605.94;4995573;28;20619;-88
2021/04/22 07:58:31;;;;;;;27.25;3.70;;;;;;;19.28;30.13;101602.38;4997969;28;20029;-88
2021/04/22 08:00:57;;;;;;;15.68;3.00;;;;;;;19.99;28.64;101606.91;4996887;28;20053;-88
2021/04/22 08:03:23;;;;;;;11.63;2.78;;;;;;;20.11;28.56;101608.47;5001681;28;20061;-86
2021/04/22 08:05:54;;;;;;;19.75;3.45;;;;;;;20.58;27.54;101607.84;5006582;28;20049;-86
2021/04/22 08:08:20;;;;;;;16.27;3.10;;;;;;;20.60;28.01;101614.75;5000568;28;20515;-88
2021/04/22 08:10:46;;;;;;;16.50;3.55;;;;;;;20.87;27.83;101604.31;5004178;28;20034;-87
2021/04/22 08:13:14;;;;;;;19.35;3.70;;;;;;;21.36;26.57;101607.72;5007406;28;20060;-88
2021/04/22 08:15:41;;;;;;;18.20;3.85;;;;;;;21.34;26.74;101612.38;4997272;28;20026;-88
2021/04/22 08:18:07;;;;;;;19.80;3.60;;;;;;;21.67;26.68;101607.53;5003102;28;20085;-87
2021/04/22 08:20:34;;;;;;;33.97;5.68;;;;;;;20.71;27.66;101629.75;4995155;28;20045;-87
2021/04/22 08:23:02;;;;;;;22.38;3.38;;;;;;;20.50;27.85;101619.22;5005080;28;20112;-87
2021/04/22 08:25:35;;;;;;;19.60;3.92;;;;;;;21.20;26.69;101625.19;5005753;28;20029;-87
2021/04/22 08:28:01;;;;;;;21.95;3.67;;;;;;;20.83;27.88;101619.78;5020366;28;20030;-87
2021/04/22 08:30:39;;;;;;;13.45;3.58;;;;;;;21.91;26.46;101609.66;5006474;28;20116;-88
2021/04/22 08:33:05;;;;;;;33.92;4.90;;;;;;;21.69;26.30;101614.38;4997379;28;20026;-88
2021/04/22 08:35:31;;;;;;;15.82;3.88;;;;;;;20.91;26.80;101622.59;5006334;28;20036;-86
2021/04/22 08:37:57;;;;;;;18.92;3.22;;;;;;;21.64;26.71;101602.47;4995955;28;20026;-86
2021/04/22 08:40:25;;;;;;;11.27;2.83;;;;;;;22.92;25.40;101610.31;4996377;28;20027;-86
2021/04/22 08:42:51;;;;;;;15.52;3.10;;;;;;;22.81;25.46;101604.34;5003497;28;20500;-86
2021/04/22 08:45:18;;;;;;;13.93;3.83;;;;;;;22.69;25.31;101603.75;4998668;28;20041;-84
2021/04/22 08:47:45;;;;;;;15.27;2.90;;;;;;;22.48;25.06;101607.59;5012524;28;20538;-85
2021/04/22 08:50:16;;;;;;;18.23;3.63;;;;;;;22.75;25.00;101600.50;4999657;28;20085;-85
2021/04/22 08:52:42;;;;;;;23.17;3.75;;;;;;;23.28;24.59;101604.91;4992978;28;20029;-87
2021/04/22 08:55:09;;;;;;;18.60;3.83;;;;;;;23.96;23.89;101600.53;5009656;28;20412;-86
2021/04/22 08:57:34;;;;;;;18.23;3.20;;;;;;;23.44;24.01;101605.97;5000516;28;20036;-86
2021/04/22 09:00:00;;;;;;;15.68;3.38;;;;;;;24.11;23.59;101600.72;5002246;28;20027;-86
2021/04/22 09:02:25;;;;;;;14.45;3.25;;;;;;;24.29;23.39;101595.22;4998173;28;20030;-85
2021/04/22 09:04:51;;;;;;;19.25;3.13;;;;;;;24.42;23.47;101598.25;5035158;23;20121;-87
2021/04/22 09:07:16;;;;;;;13.05;3.10;;;;;;;24.91;22.26;101594.78;5013094;28;20105;-87
2021/04/22 09:09:43;;;;;;;14.52;3.63;;;;;;;24.82;22.52;101595.78;5011354;28;20033;-87
2021/04/22 09:12:17;;;;;;;17.85;3.63;;;;;;;25.11;22.11;101597.94;5009464;28;20736;-87
2021/04/22 09:14:54;;;;;;;18.63;3.42;;;;;;;25.30;21.33;101586.84;5003616;28;20022;-87
2021/04/22 09:17:22;;;;;;;8.70;2.13;;;;;;;24.77;21.24;101590.94;5011825;28;20026;-87
2021/04/22 09:19:47;;;;;;;11.10;3.08;;;;;;;24.68;21.51;101594.63;5000790;28;20022;-87
2021/04/22 09:22:13;;;;;;;17.13;3.00;;;;;;;25.18;21.25;101590.88;5007052;28;20026;-87
2021/04/22 09:24:39;;;;;;;13.60;3.42;;;;;;;25.45;20.68;101584.25;4996144;28;20034;-86
2021/04/22 09:27:11;;;;;;;14.30;3.58;;;;;;;25.75;19.95;101583.63;5006975;28;20026;-88
2021/04/22 09:29:44;;;;;;;;;;;;;;;24.35;20.70;101599.97;5001803;28;20038;-86
2021/04/22 09:32:11;;;;;;;11.52;2.85;;;;;;;24.14;21.92;101598.56;5007529;28;19913;-87
2021/04/22 09:34:37;;;;;;;22.38;4.40;;;;;;;24.46;21.33;101582.66;5006307;28;20261;-87
2021/04/22 09:37:03;;;;;;;15.32;2.90;;;;;;;23.78;22.49;101584.56;5000157;28;20338;-87
2021/04/22 09:39:31;;;;;;;15.75;3.25;;;;;;;23.91;22.10;101590.31;5002366;28;20034;-86
2021/04/22 09:42:05;;;;;;;16.48;2.97;;;;;;;23.91;22.03;101584.06;5001193;28;20100;-86
2021/04/22 09:44:30;;;;;;;12.88;4.10;;;;;;;24.75;21.29;101574.16;5002932;28;20400;-86
2021/04/22 09:47:16;;;;;;;18.98;3.90;;;;;;;25.25;20.48;101583.81;5000373;28;20031;-86
2021/04/22 09:49:52;;;;;;;7.40;2.03;;;;;;;25.49;19.55;101577.53;5007111;28;20036;-86
2021/04/22 09:52:19;;;;;;;13.13;2.80;;;;;;;25.75;20.02;101572.88;4996006;28;20121;-86
2021/04/22 09:54:48;;;;;;;18.52;2.90;;;;;;;26.42;19.65;101567.78;5004262;28;20026;-86
2021/04/22 09:57:25;;;;;;;12.38;3.25;;;;;;;27.19;19.27;101569.44;5008048;28;20100;-86
2021/04/22 09:59:52;;;;;;;20.15;3.20;;;;;;;27.64;18.57;101564.00;4997050;28;20030;-87
2021/04/22 10:02:17;;;;;;;12.88;3.05;;;;;;;27.33;18.69;101572.31;4998691;28;20034;-86
2021/04/22 10:04:45;;;;;;;10.90;2.63;;;;;;;27.66;17.72;101570.88;5003650;28;20026;-87
2021/04/22 10:07:26;;;;;;;8.43;2.55;;;;;;;27.49;17.82;101580.22;5000695;28;20534;-87
2021/04/22 10:09:53;;;;;;;14.77;3.08;;;;;;;27.47;17.74;101579.59;5002307;28;20045;-86
2021/04/22 10:12:21;;;;;;;13.98;3.35;;;;;;;27.06;18.03;101572.75;5005104;28;20037;-86
2021/04/22 10:14:46;;;;;;;10.38;2.92;;;;;;;27.06;19.00;101561.16;5001333;28;20026;-86
2021/04/22 10:17:17;;;;;;;13.75;3.03;;;;;;;28.04;18.04;101564.47;5005267;28;20034;-86
2021/04/22 10:19:54;;;;;;;13.52;3.33;;;;;;;27.63;18.69;101584.75;5002349;28;20030;-86
2021/04/22 10:22:34;;;;;;;12.65;2.95;;;;;;;28.52;16.74;101562.06;5003552;28;20027;-86
2021/04/22 10:25:09;;;;;;;12.98;2.65;;;;;;;27.97;17.57;101564.44;4999338;28;20034;-87
2021/04/22 10:27:35;;;;;;;14.73;2.50;;;;;;;27.21;17.05;101574.59;5001403;28;20033;-86
2021/04/22 10:30:03;;;;;;;14.00;2.60;;;;;;;28.04;17.43;101562.66;5023650;28;20037;-86
2021/04/22 10:32:29;;;;;;;16.95;3.95;;;;;;;27.84;16.68;101569.63;5007543;28;20030;-86
2021/04/22 10:34:55;;;;;;;11.88;3.40;;;;;;;28.26;17.40;101573.47;5008167;28;20037;-86
2021/04/22 10:37:25;;;;;;;9.48;2.55;;;;;;;27.96;17.18;101561.91;5004058;28;20034;-86
2021/04/22 10:39:54;;;;;;;28.17;3.70;;;;;;;28.31;16.71;101570.16;4999413;28;20018;-86
2021/04/22 10:42:20;;;;;;;12.88;2.72;;;;;;;27.97;18.01;101566.28;5010136;28;20026;-86
2021/04/22 10:44:51;;;;;;;11.25;2.90;;;;;;;28.84;16.27;101566.06;5026367;28;20041;-87
2021/04/22 10:47:17;;;;;;;;;;;;;;;28.45;17.00;101567.38;5019418;28;20073;-87
2021/04/22 10:49:43;;;;;;;15.43;2.72;;;;;;;28.93;17.29;101566.75;5007059;28;19925;-87
2021/04/22 10:52:08;;;;;;;14.50;3.28;;;;;;;28.77;16.90;101567.91;5010235;28;20037;-87
2021/04/22 10:54:39;;;;;;;14.05;3.28;;;;;;;29.02;16.34;101564.72;5004323;28;20038;-87
2021/04/22 10:57:10;;;;;;;16.85;4.28;;;;;;;29.16;15.60;101569.19;4995519;28;20026;-87
2021/04/22 10:59:36;;;;;;;12.90;2.85;;;;;;;28.08;16.25;101563.06;5001918;28;20053;-87
2021/04/22 11:02:23;;;;;;;14.02;3.72;;;;;;;28.01;16.41;101549.50;4995738;28;20122;-86
2021/04/22 11:04:50;;;;;;;10.52;2.75;;;;;;;28.39;16.30;101551.13;5011374;28;20079;-87
2021/04/22 11:07:26;;;;;;;16.02;3.50;;;;;;;28.36;16.03;101554.19;5010731;28;20037;-86
2021/04/22 11:10:00;;;;;;;10.30;2.63;;;;;;;28.55;15.51;101552.75;5019394;28;20031;-87
2021/04/22 11:12:29;;;;;;;18.63;3.00;;;;;;;28.41;15.94;101541.78;4999896;28;20053;-86
2021/04/22 11:14:56;;;;;;;14.82;3.33;;;;;;;28.91;15.66;101547.19;5008899;28;20028;-86
2021/04/22 11:17:36;;;;;;;11.93;2.80;;;;;;;28.60;14.77;101545.72;4998265;28;20030;-87
2021/04/22 11:20:17;;;;;;;20.50;4.30;;;;;;;28.79;14.83;101546.91;4994140;28;20027;-87
2021/04/22 11:22:45;;;;;;;8.38;2.67;;;;;;;28.61;15.51;101544.69;5016638;28;20116;-87